sensor_id;sensor_type;location;lat;lon;timestamp;P1;durP1;ratioP1;P2;durP2;ratioP2
79712;SDS011;69206;51.420;5.400;2023-04-28T00:01:46;19.38;;;10.48;;
79712;SDS011;69206;51.420;5.400;2023-04-28T00:04:12;23.05;;;11.07;;
79712;SDS011;69206;51.420;5.400;2023-04-28T00:06:37;20.90;;;10.63;;
79712;SDS011;69206;51.420;5.400;2023-04-28T00:09:04;20.45;;;10.98;;
79712;SDS011;69206;51.420;5.400;2023-04-28T00:11:30;18.77;;;11.00;;
79712;SDS011;69206;51.420;5.400;2023-04-28T00:13:55;19.42;;;11.23;;
79712;SDS011;69206;51.420;5.400;2023-04-28T00:16:21;20.58;;;11.70;;
79712;SDS011;69206;51.420;5.400;2023-04-28T00:18:46;28.52;;;13.77;;
79712;SDS011;69206;51.420;5.400;2023-04-28T00:21:12;33.22;;;17.52;;
79712;SDS011;69206;51.420;5.400;2023-04-28T00:23:37;42.10;;;23.00;;
79712;SDS011;69206;51.420;5.400;2023-04-28T00:26:03;52.08;;;29.08;;
79712;SDS011;69206;51.420;5.400;2023-04-28T00:28:28;55.20;;;30.52;;
79712;SDS011;69206;51.420;5.400;2023-04-28T00:30:53;51.53;;;28.63;;
79712;SDS011;69206;51.420;5.400;2023-04-28T00:33:19;59.88;;;27.45;;
79712;SDS011;69206;51.420;5.400;2023-04-28T00:35:44;37.63;;;19.45;;
79712;SDS011;69206;51.420;5.400;2023-04-28T00:38:10;37.80;;;18.05;;
79712;SDS011;69206;51.420;5.400;2023-04-28T00:40:36;26.50;;;13.52;;
79712;SDS011;69206;51.420;5.400;2023-04-28T00:43:03;29.52;;;12.80;;
79712;SDS011;69206;51.420;5.400;2023-04-28T00:45:28;26.77;;;12.40;;
79712;SDS011;69206;51.420;5.400;2023-04-28T00:47:54;25.50;;;12.38;;
79712;SDS011;69206;51.420;5.400;2023-04-28T00:50:21;22.13;;;10.57;;
79712;SDS011;69206;51.420;5.400;2023-04-28T00:52:47;17.98;;;10.77;;
79712;SDS011;69206;51.420;5.400;2023-04-28T00:55:14;23.63;;;11.07;;
79712;SDS011;69206;51.420;5.400;2023-04-28T00:57:40;21.58;;;10.52;;
79712;SDS011;69206;51.420;5.400;2023-04-28T01:00:06;21.35;;;9.93;;
79712;SDS011;69206;51.420;5.400;2023-04-28T01:02:31;23.27;;;10.82;;
79712;SDS011;69206;51.420;5.400;2023-04-28T01:04:57;21.05;;;11.43;;
79712;SDS011;69206;51.420;5.400;2023-04-28T01:07:24;25.65;;;10.27;;
79712;SDS011;69206;51.420;5.400;2023-04-28T01:09:49;19.40;;;10.13;;
79712;SDS011;69206;51.420;5.400;2023-04-28T01:12:15;20.13;;;10.20;;
79712;SDS011;69206;51.420;5.400;2023-04-28T01:14:40;21.00;;;10.68;;
79712;SDS011;69206;51.420;5.400;2023-04-28T01:17:06;20.42;;;9.68;;
79712;SDS011;69206;51.420;5.400;2023-04-28T01:19:32;24.17;;;10.90;;
79712;SDS011;69206;51.420;5.400;2023-04-28T01:21:58;17.98;;;10.00;;
79712;SDS011;69206;51.420;5.400;2023-04-28T01:24:23;23.55;;;10.75;;
79712;SDS011;69206;51.420;5.400;2023-04-28T01:26:49;23.02;;;11.05;;
79712;SDS011;69206;51.420;5.400;2023-04-28T01:29:14;22.92;;;11.27;;
79712;SDS011;69206;51.420;5.400;2023-04-28T01:31:39;19.10;;;9.60;;
79712;SDS011;69206;51.420;5.400;2023-04-28T01:34:05;21.13;;;10.43;;
79712;SDS011;69206;51.420;5.400;2023-04-28T01:36:30;17.52;;;9.88;;
79712;SDS011;69206;51.420;5.400;2023-04-28T01:38:57;21.13;;;10.77;;
79712;SDS011;69206;51.420;5.400;2023-04-28T01:41:22;16.67;;;10.40;;
79712;SDS011;69206;51.420;5.400;2023-04-28T01:43:48;19.17;;;10.23;;
79712;SDS011;69206;51.420;5.400;2023-04-28T01:46:13;26.08;;;10.80;;
79712;SDS011;69206;51.420;5.400;2023-04-28T01:48:39;22.73;;;10.82;;
79712;SDS011;69206;51.420;5.400;2023-04-28T01:51:04;22.02;;;11.40;;
79712;SDS011;69206;51.420;5.400;2023-04-28T01:53:29;22.42;;;11.63;;
79712;SDS011;69206;51.420;5.400;2023-04-28T01:55:55;21.23;;;11.25;;
79712;SDS011;69206;51.420;5.400;2023-04-28T01:58:20;26.63;;;11.35;;
79712;SDS011;69206;51.420;5.400;2023-04-28T02:00:46;26.48;;;10.95;;
79712;SDS011;69206;51.420;5.400;2023-04-28T02:03:11;20.70;;;11.15;;
79712;SDS011;69206;51.420;5.400;2023-04-28T02:05:37;17.63;;;10.65;;
79712;SDS011;69206;51.420;5.400;2023-04-28T02:08:03;24.23;;;11.57;;
79712;SDS011;69206;51.420;5.400;2023-04-28T02:10:28;22.40;;;11.32;;
79712;SDS011;69206;51.420;5.400;2023-04-28T02:12:54;25.35;;;12.07;;
79712;SDS011;69206;51.420;5.400;2023-04-28T02:15:19;21.02;;;11.75;;
79712;SDS011;69206;51.420;5.400;2023-04-28T02:17:44;24.83;;;12.80;;
79712;SDS011;69206;51.420;5.400;2023-04-28T02:20:10;20.90;;;12.25;;
79712;SDS011;69206;51.420;5.400;2023-04-28T02:22:36;19.52;;;11.75;;
79712;SDS011;69206;51.420;5.400;2023-04-28T02:25:01;20.58;;;12.05;;
79712;SDS011;69206;51.420;5.400;2023-04-28T02:27:27;26.02;;;12.57;;
79712;SDS011;69206;51.420;5.400;2023-04-28T02:29:52;24.13;;;12.00;;
79712;SDS011;69206;51.420;5.400;2023-04-28T02:32:18;25.90;;;12.98;;
79712;SDS011;69206;51.420;5.400;2023-04-28T02:34:43;21.83;;;12.55;;
79712;SDS011;69206;51.420;5.400;2023-04-28T02:37:08;32.22;;;12.55;;
79712;SDS011;69206;51.420;5.400;2023-04-28T02:39:34;26.92;;;12.68;;
79712;SDS011;69206;51.420;5.400;2023-04-28T02:41:59;24.77;;;12.75;;
79712;SDS011;69206;51.420;5.400;2023-04-28T02:44:25;25.38;;;11.68;;
79712;SDS011;69206;51.420;5.400;2023-04-28T02:46:50;23.15;;;12.25;;
79712;SDS011;69206;51.420;5.400;2023-04-28T02:49:16;23.80;;;13.02;;
79712;SDS011;69206;51.420;5.400;2023-04-28T02:51:41;30.03;;;12.80;;
79712;SDS011;69206;51.420;5.400;2023-04-28T02:54:07;25.07;;;12.67;;
79712;SDS011;69206;51.420;5.400;2023-04-28T02:56:33;24.05;;;12.73;;
79712;SDS011;69206;51.420;5.400;2023-04-28T02:58:59;27.30;;;13.40;;
79712;SDS011;69206;51.420;5.400;2023-04-28T03:01:24;32.60;;;12.93;;
79712;SDS011;69206;51.420;5.400;2023-04-28T03:03:50;29.58;;;13.25;;
79712;SDS011;69206;51.420;5.400;2023-04-28T03:06:15;22.50;;;12.23;;
79712;SDS011;69206;51.420;5.400;2023-04-28T03:08:40;27.13;;;13.38;;
79712;SDS011;69206;51.420;5.400;2023-04-28T03:11:06;25.27;;;13.87;;
79712;SDS011;69206;51.420;5.400;2023-04-28T03:13:31;26.13;;;13.43;;
79712;SDS011;69206;51.420;5.400;2023-04-28T03:15:57;27.97;;;13.80;;
79712;SDS011;69206;51.420;5.400;2023-04-28T03:18:23;23.20;;;13.53;;
79712;SDS011;69206;51.420;5.400;2023-04-28T03:20:49;26.02;;;13.25;;
79712;SDS011;69206;51.420;5.400;2023-04-28T03:23:14;25.17;;;13.10;;
79712;SDS011;69206;51.420;5.400;2023-04-28T03:25:40;26.67;;;13.75;;
79712;SDS011;69206;51.420;5.400;2023-04-28T03:28:05;27.05;;;14.75;;
79712;SDS011;69206;51.420;5.400;2023-04-28T03:30:31;26.80;;;13.85;;
79712;SDS011;69206;51.420;5.400;2023-04-28T03:32:56;23.65;;;14.27;;
79712;SDS011;69206;51.420;5.400;2023-04-28T03:35:22;31.25;;;14.43;;
79712;SDS011;69206;51.420;5.400;2023-04-28T03:37:47;30.02;;;15.35;;
79712;SDS011;69206;51.420;5.400;2023-04-28T03:40:13;23.95;;;13.77;;
79712;SDS011;69206;51.420;5.400;2023-04-28T03:42:38;25.95;;;14.10;;
79712;SDS011;69206;51.420;5.400;2023-04-28T03:45:04;25.60;;;13.20;;
79712;SDS011;69206;51.420;5.400;2023-04-28T03:47:30;26.63;;;13.38;;
79712;SDS011;69206;51.420;5.400;2023-04-28T03:49:55;27.70;;;14.32;;
79712;SDS011;69206;51.420;5.400;2023-04-28T03:52:22;28.17;;;14.65;;
79712;SDS011;69206;51.420;5.400;2023-04-28T03:54:48;26.50;;;14.70;;
79712;SDS011;69206;51.420;5.400;2023-04-28T03:57:13;30.50;;;14.73;;
79712;SDS011;69206;51.420;5.400;2023-04-28T03:59:39;29.75;;;13.60;;
79712;SDS011;69206;51.420;5.400;2023-04-28T04:02:04;27.35;;;14.40;;
79712;SDS011;69206;51.420;5.400;2023-04-28T04:04:29;30.27;;;15.02;;
79712;SDS011;69206;51.420;5.400;2023-04-28T04:06:55;27.40;;;13.88;;
79712;SDS011;69206;51.420;5.400;2023-04-28T04:09:20;25.23;;;14.93;;
79712;SDS011;69206;51.420;5.400;2023-04-28T04:11:46;25.48;;;14.20;;
79712;SDS011;69206;51.420;5.400;2023-04-28T04:14:11;25.20;;;14.65;;
79712;SDS011;69206;51.420;5.400;2023-04-28T04:16:36;28.73;;;15.50;;
79712;SDS011;69206;51.420;5.400;2023-04-28T04:19:02;30.75;;;16.48;;
79712;SDS011;69206;51.420;5.400;2023-04-28T04:21:27;29.65;;;15.35;;
79712;SDS011;69206;51.420;5.400;2023-04-28T04:23:53;28.90;;;15.93;;
79712;SDS011;69206;51.420;5.400;2023-04-28T04:26:18;28.25;;;15.63;;
79712;SDS011;69206;51.420;5.400;2023-04-28T04:28:44;29.92;;;16.38;;
79712;SDS011;69206;51.420;5.400;2023-04-28T04:31:09;28.30;;;16.02;;
79712;SDS011;69206;51.420;5.400;2023-04-28T04:33:34;26.73;;;15.02;;
79712;SDS011;69206;51.420;5.400;2023-04-28T04:36:01;30.17;;;15.27;;
79712;SDS011;69206;51.420;5.400;2023-04-28T04:38:28;31.00;;;14.95;;
79712;SDS011;69206;51.420;5.400;2023-04-28T04:40:55;24.02;;;14.85;;
79712;SDS011;69206;51.420;5.400;2023-04-28T04:43:20;28.10;;;14.98;;
79712;SDS011;69206;51.420;5.400;2023-04-28T04:45:46;25.65;;;14.45;;
79712;SDS011;69206;51.420;5.400;2023-04-28T04:48:11;24.95;;;14.65;;
79712;SDS011;69206;51.420;5.400;2023-04-28T04:50:37;30.48;;;15.05;;
79712;SDS011;69206;51.420;5.400;2023-04-28T04:53:02;25.63;;;15.18;;
79712;SDS011;69206;51.420;5.400;2023-04-28T04:55:28;29.92;;;15.60;;
79712;SDS011;69206;51.420;5.400;2023-04-28T04:57:54;23.65;;;14.52;;
79712;SDS011;69206;51.420;5.400;2023-04-28T05:00:19;27.58;;;15.25;;
79712;SDS011;69206;51.420;5.400;2023-04-28T05:02:45;26.83;;;15.57;;
79712;SDS011;69206;51.420;5.400;2023-04-28T05:05:10;30.17;;;15.57;;
79712;SDS011;69206;51.420;5.400;2023-04-28T05:07:36;26.88;;;15.00;;
79712;SDS011;69206;51.420;5.400;2023-04-28T05:10:01;26.25;;;14.75;;
79712;SDS011;69206;51.420;5.400;2023-04-28T05:12:27;31.35;;;15.77;;
79712;SDS011;69206;51.420;5.400;2023-04-28T05:14:52;30.55;;;16.40;;
79712;SDS011;69206;51.420;5.400;2023-04-28T05:17:17;26.20;;;15.48;;
79712;SDS011;69206;51.420;5.400;2023-04-28T05:19:43;29.58;;;16.45;;
79712;SDS011;69206;51.420;5.400;2023-04-28T05:22:09;31.45;;;16.90;;
79712;SDS011;69206;51.420;5.400;2023-04-28T05:24:35;29.20;;;15.90;;
79712;SDS011;69206;51.420;5.400;2023-04-28T05:27:00;31.80;;;16.80;;
79712;SDS011;69206;51.420;5.400;2023-04-28T05:29:26;31.50;;;17.10;;
79712;SDS011;69206;51.420;5.400;2023-04-28T05:31:51;28.27;;;15.55;;
79712;SDS011;69206;51.420;5.400;2023-04-28T05:34:17;27.58;;;15.80;;
79712;SDS011;69206;51.420;5.400;2023-04-28T05:36:42;33.17;;;16.23;;
79712;SDS011;69206;51.420;5.400;2023-04-28T05:39:08;33.40;;;16.92;;
79712;SDS011;69206;51.420;5.400;2023-04-28T05:41:34;27.67;;;16.48;;
79712;SDS011;69206;51.420;5.400;2023-04-28T05:44:00;31.35;;;16.95;;
79712;SDS011;69206;51.420;5.400;2023-04-28T05:46:26;30.38;;;16.77;;
79712;SDS011;69206;51.420;5.400;2023-04-28T05:48:51;34.58;;;16.92;;
79712;SDS011;69206;51.420;5.400;2023-04-28T05:51:17;28.55;;;16.02;;
79712;SDS011;69206;51.420;5.400;2023-04-28T05:53:42;30.73;;;17.00;;
79712;SDS011;69206;51.420;5.400;2023-04-28T05:56:07;27.17;;;15.77;;
79712;SDS011;69206;51.420;5.400;2023-04-28T05:58:33;28.10;;;15.88;;
79712;SDS011;69206;51.420;5.400;2023-04-28T06:00:58;32.38;;;16.27;;
79712;SDS011;69206;51.420;5.400;2023-04-28T06:03:24;30.50;;;16.02;;
79712;SDS011;69206;51.420;5.400;2023-04-28T06:05:50;32.70;;;16.95;;
79712;SDS011;69206;51.420;5.400;2023-04-28T06:08:16;30.13;;;16.27;;
79712;SDS011;69206;51.420;5.400;2023-04-28T06:10:41;31.33;;;15.70;;
79712;SDS011;69206;51.420;5.400;2023-04-28T06:13:06;30.75;;;16.10;;
79712;SDS011;69206;51.420;5.400;2023-04-28T06:15:33;28.35;;;15.43;;
79712;SDS011;69206;51.420;5.400;2023-04-28T06:17:58;22.33;;;15.15;;
79712;SDS011;69206;51.420;5.400;2023-04-28T06:20:24;28.40;;;15.57;;
79712;SDS011;69206;51.420;5.400;2023-04-28T06:22:49;26.52;;;15.25;;
79712;SDS011;69206;51.420;5.400;2023-04-28T06:25:15;27.63;;;15.82;;
79712;SDS011;69206;51.420;5.400;2023-04-28T06:27:41;28.17;;;14.88;;
79712;SDS011;69206;51.420;5.400;2023-04-28T06:30:06;26.48;;;15.90;;
79712;SDS011;69206;51.420;5.400;2023-04-28T06:32:32;29.05;;;16.33;;
79712;SDS011;69206;51.420;5.400;2023-04-28T06:34:57;25.63;;;15.85;;
79712;SDS011;69206;51.420;5.400;2023-04-28T06:37:23;34.75;;;17.02;;
79712;SDS011;69206;51.420;5.400;2023-04-28T06:39:48;31.15;;;17.05;;
79712;SDS011;69206;51.420;5.400;2023-04-28T06:42:14;27.27;;;16.08;;
79712;SDS011;69206;51.420;5.400;2023-04-28T06:44:42;36.63;;;16.52;;
79712;SDS011;69206;51.420;5.400;2023-04-28T06:47:08;27.80;;;15.23;;
79712;SDS011;69206;51.420;5.400;2023-04-28T06:49:33;33.30;;;16.30;;
79712;SDS011;69206;51.420;5.400;2023-04-28T06:51:58;30.65;;;16.55;;
79712;SDS011;69206;51.420;5.400;2023-04-28T06:54:24;31.15;;;16.50;;
79712;SDS011;69206;51.420;5.400;2023-04-28T06:56:49;30.38;;;16.83;;
79712;SDS011;69206;51.420;5.400;2023-04-28T06:59:14;33.60;;;17.40;;
79712;SDS011;69206;51.420;5.400;2023-04-28T07:01:40;36.50;;;18.10;;
79712;SDS011;69206;51.420;5.400;2023-04-28T07:04:05;36.72;;;19.98;;
79712;SDS011;69206;51.420;5.400;2023-04-28T07:06:31;35.22;;;17.90;;
79712;SDS011;69206;51.420;5.400;2023-04-28T07:08:56;31.88;;;18.40;;
79712;SDS011;69206;51.420;5.400;2023-04-28T07:11:22;34.75;;;18.35;;
79712;SDS011;69206;51.420;5.400;2023-04-28T07:13:47;35.58;;;18.80;;
79712;SDS011;69206;51.420;5.400;2023-04-28T07:16:15;32.35;;;18.35;;
79712;SDS011;69206;51.420;5.400;2023-04-28T07:18:43;34.47;;;17.38;;
79712;SDS011;69206;51.420;5.400;2023-04-28T07:21:09;27.67;;;16.77;;
79712;SDS011;69206;51.420;5.400;2023-04-28T07:23:35;35.00;;;18.40;;
79712;SDS011;69206;51.420;5.400;2023-04-28T07:26:02;29.67;;;17.52;;
79712;SDS011;69206;51.420;5.400;2023-04-28T07:28:28;32.45;;;18.83;;
79712;SDS011;69206;51.420;5.400;2023-04-28T07:30:53;35.05;;;19.35;;
79712;SDS011;69206;51.420;5.400;2023-04-28T07:33:18;36.22;;;19.08;;
79712;SDS011;69206;51.420;5.400;2023-04-28T07:35:44;35.15;;;19.45;;
79712;SDS011;69206;51.420;5.400;2023-04-28T07:38:09;34.17;;;19.17;;
79712;SDS011;69206;51.420;5.400;2023-04-28T07:40:35;38.55;;;19.17;;
79712;SDS011;69206;51.420;5.400;2023-04-28T07:43:00;31.90;;;20.65;;
79712;SDS011;69206;51.420;5.400;2023-04-28T07:45:26;36.58;;;19.85;;
79712;SDS011;69206;51.420;5.400;2023-04-28T07:47:51;36.03;;;21.20;;
79712;SDS011;69206;51.420;5.400;2023-04-28T07:50:17;38.97;;;21.17;;
79712;SDS011;69206;51.420;5.400;2023-04-28T07:52:42;35.58;;;20.35;;
79712;SDS011;69206;51.420;5.400;2023-04-28T07:55:08;40.45;;;22.95;;
79712;SDS011;69206;51.420;5.400;2023-04-28T07:57:35;33.33;;;19.95;;
79712;SDS011;69206;51.420;5.400;2023-04-28T08:00:01;36.35;;;21.13;;
79712;SDS011;69206;51.420;5.400;2023-04-28T08:02:26;36.03;;;20.02;;
79712;SDS011;69206;51.420;5.400;2023-04-28T08:04:52;35.67;;;21.55;;
79712;SDS011;69206;51.420;5.400;2023-04-28T08:07:17;38.05;;;21.25;;
79712;SDS011;69206;51.420;5.400;2023-04-28T08:09:42;36.33;;;21.50;;
79712;SDS011;69206;51.420;5.400;2023-04-28T08:12:11;34.72;;;21.45;;
79712;SDS011;69206;51.420;5.400;2023-04-28T08:14:37;41.60;;;21.98;;
79712;SDS011;69206;51.420;5.400;2023-04-28T08:17:02;40.30;;;21.80;;
79712;SDS011;69206;51.420;5.400;2023-04-28T08:19:28;39.67;;;21.70;;
79712;SDS011;69206;51.420;5.400;2023-04-28T08:21:53;42.25;;;23.15;;
79712;SDS011;69206;51.420;5.400;2023-04-28T08:24:18;42.45;;;22.25;;
79712;SDS011;69206;51.420;5.400;2023-04-28T08:26:44;37.03;;;22.25;;
79712;SDS011;69206;51.420;5.400;2023-04-28T08:29:09;41.13;;;22.83;;
79712;SDS011;69206;51.420;5.400;2023-04-28T08:31:35;40.10;;;23.00;;
79712;SDS011;69206;51.420;5.400;2023-04-28T08:34:01;44.15;;;24.10;;
79712;SDS011;69206;51.420;5.400;2023-04-28T08:36:26;47.65;;;24.23;;
79712;SDS011;69206;51.420;5.400;2023-04-28T08:38:56;44.70;;;24.08;;
79712;SDS011;69206;51.420;5.400;2023-04-28T08:41:23;40.75;;;22.63;;
79712;SDS011;69206;51.420;5.400;2023-04-28T08:43:51;39.65;;;23.80;;
79712;SDS011;69206;51.420;5.400;2023-04-28T08:46:17;38.95;;;23.35;;
79712;SDS011;69206;51.420;5.400;2023-04-28T08:48:46;39.20;;;22.73;;
79712;SDS011;69206;51.420;5.400;2023-04-28T08:51:14;39.08;;;23.63;;
79712;SDS011;69206;51.420;5.400;2023-04-28T08:53:43;37.25;;;23.50;;
79712;SDS011;69206;51.420;5.400;2023-04-28T08:56:14;36.40;;;21.52;;
79712;SDS011;69206;51.420;5.400;2023-04-28T08:58:40;39.83;;;23.20;;
79712;SDS011;69206;51.420;5.400;2023-04-28T09:01:07;36.88;;;21.70;;
79712;SDS011;69206;51.420;5.400;2023-04-28T09:03:32;38.15;;;21.65;;
79712;SDS011;69206;51.420;5.400;2023-04-28T09:05:58;35.70;;;21.17;;
79712;SDS011;69206;51.420;5.400;2023-04-28T09:08:26;38.78;;;23.17;;
79712;SDS011;69206;51.420;5.400;2023-04-28T09:11:10;39.08;;;21.30;;
79712;SDS011;69206;51.420;5.400;2023-04-28T09:13:37;34.30;;;20.52;;
79712;SDS011;69206;51.420;5.400;2023-04-28T09:16:04;39.15;;;21.88;;
79712;SDS011;69206;51.420;5.400;2023-04-28T09:18:29;40.97;;;23.05;;
79712;SDS011;69206;51.420;5.400;2023-04-28T09:21:05;40.78;;;23.25;;
79712;SDS011;69206;51.420;5.400;2023-04-28T09:23:31;46.28;;;24.05;;
79712;SDS011;69206;51.420;5.400;2023-04-28T09:26:03;47.88;;;25.30;;
79712;SDS011;69206;51.420;5.400;2023-04-28T09:28:33;44.80;;;24.15;;
79712;SDS011;69206;51.420;5.400;2023-04-28T09:31:00;44.45;;;24.63;;
79712;SDS011;69206;51.420;5.400;2023-04-28T09:33:26;41.67;;;23.98;;
79712;SDS011;69206;51.420;5.400;2023-04-28T09:35:51;38.50;;;22.90;;
79712;SDS011;69206;51.420;5.400;2023-04-28T09:38:17;45.00;;;24.15;;
79712;SDS011;69206;51.420;5.400;2023-04-28T09:40:54;45.90;;;24.15;;
79712;SDS011;69206;51.420;5.400;2023-04-28T09:45:50;36.67;;;23.85;;
79712;SDS011;69206;51.420;5.400;2023-04-28T09:48:17;36.53;;;22.48;;
79712;SDS011;69206;51.420;5.400;2023-04-28T09:50:50;37.58;;;21.58;;
79712;SDS011;69206;51.420;5.400;2023-04-28T09:53:18;37.10;;;22.00;;
79712;SDS011;69206;51.420;5.400;2023-04-28T09:55:46;36.63;;;22.90;;
79712;SDS011;69206;51.420;5.400;2023-04-28T09:58:12;39.95;;;22.73;;
79712;SDS011;69206;51.420;5.400;2023-04-28T10:00:39;38.50;;;23.30;;
79712;SDS011;69206;51.420;5.400;2023-04-28T10:03:06;33.63;;;23.15;;
79712;SDS011;69206;51.420;5.400;2023-04-28T10:05:33;38.28;;;21.75;;
79712;SDS011;69206;51.420;5.400;2023-04-28T10:08:00;32.22;;;21.13;;
79712;SDS011;69206;51.420;5.400;2023-04-28T10:10:27;32.70;;;22.00;;
79712;SDS011;69206;51.420;5.400;2023-04-28T10:12:53;33.85;;;21.10;;
79712;SDS011;69206;51.420;5.400;2023-04-28T10:15:19;31.83;;;20.77;;
79712;SDS011;69206;51.420;5.400;2023-04-28T10:17:45;35.83;;;21.45;;
79712;SDS011;69206;51.420;5.400;2023-04-28T10:20:12;33.63;;;21.35;;
79712;SDS011;69206;51.420;5.400;2023-04-28T10:25:24;33.08;;;20.95;;
79712;SDS011;69206;51.420;5.400;2023-04-28T10:27:58;32.22;;;19.85;;
79712;SDS011;69206;51.420;5.400;2023-04-28T10:30:25;26.92;;;19.20;;
79712;SDS011;69206;51.420;5.400;2023-04-28T10:40:34;28.50;;;20.20;;
79712;SDS011;69206;51.420;5.400;2023-04-28T10:43:01;29.48;;;20.25;;
79712;SDS011;69206;51.420;5.400;2023-04-28T10:48:18;26.75;;;19.05;;
79712;SDS011;69206;51.420;5.400;2023-04-28T11:11:38;17.50;;;13.55;;
79712;SDS011;69206;51.420;5.400;2023-04-28T11:14:29;15.23;;;12.68;;
79712;SDS011;69206;51.420;5.400;2023-04-28T11:17:13;18.75;;;11.93;;
79712;SDS011;69206;51.420;5.400;2023-04-28T11:19:42;14.20;;;11.98;;
79712;SDS011;69206;51.420;5.400;2023-04-28T11:22:15;15.68;;;11.43;;
79712;SDS011;69206;51.420;5.400;2023-04-28T11:24:53;15.93;;;11.45;;
79712;SDS011;69206;51.420;5.400;2023-04-28T11:27:26;14.50;;;11.48;;
79712;SDS011;69206;51.420;5.400;2023-04-28T11:29:52;13.80;;;11.30;;
79712;SDS011;69206;51.420;5.400;2023-04-28T11:32:24;12.45;;;10.43;;
79712;SDS011;69206;51.420;5.400;2023-04-28T11:34:51;13.27;;;10.40;;
79712;SDS011;69206;51.420;5.400;2023-04-28T11:37:17;13.48;;;11.10;;
79712;SDS011;69206;51.420;5.400;2023-04-28T11:39:45;12.77;;;11.13;;
79712;SDS011;69206;51.420;5.400;2023-04-28T11:42:10;13.48;;;11.35;;
79712;SDS011;69206;51.420;5.400;2023-04-28T11:44:36;14.90;;;10.48;;
79712;SDS011;69206;51.420;5.400;2023-04-28T11:47:02;14.13;;;10.00;;
79712;SDS011;69206;51.420;5.400;2023-04-28T11:49:29;14.35;;;9.82;;
79712;SDS011;69206;51.420;5.400;2023-04-28T11:52:01;14.88;;;10.40;;
79712;SDS011;69206;51.420;5.400;2023-04-28T11:54:29;14.38;;;11.05;;
79712;SDS011;69206;51.420;5.400;2023-04-28T11:56:56;12.82;;;10.65;;
79712;SDS011;69206;51.420;5.400;2023-04-28T11:59:40;13.73;;;11.50;;
79712;SDS011;69206;51.420;5.400;2023-04-28T12:02:06;14.57;;;11.18;;
79712;SDS011;69206;51.420;5.400;2023-04-28T12:04:36;18.23;;;11.82;;
79712;SDS011;69206;51.420;5.400;2023-04-28T12:07:06;22.23;;;13.38;;
79712;SDS011;69206;51.420;5.400;2023-04-28T12:09:39;15.77;;;13.40;;
79712;SDS011;69206;51.420;5.400;2023-04-28T12:12:06;17.27;;;13.32;;
79712;SDS011;69206;51.420;5.400;2023-04-28T12:17:37;18.83;;;14.13;;
79712;SDS011;69206;51.420;5.400;2023-04-28T12:22:41;15.85;;;12.43;;
79712;SDS011;69206;51.420;5.400;2023-04-28T12:25:15;13.73;;;12.25;;
79712;SDS011;69206;51.420;5.400;2023-04-28T12:27:57;16.50;;;11.95;;
79712;SDS011;69206;51.420;5.400;2023-04-28T12:30:26;14.02;;;10.95;;
79712;SDS011;69206;51.420;5.400;2023-04-28T12:32:53;17.33;;;11.43;;
79712;SDS011;69206;51.420;5.400;2023-04-28T12:35:23;11.68;;;9.75;;
79712;SDS011;69206;51.420;5.400;2023-04-28T12:37:49;11.07;;;9.73;;
79712;SDS011;69206;51.420;5.400;2023-04-28T12:40:15;10.18;;;9.15;;
79712;SDS011;69206;51.420;5.400;2023-04-28T12:42:41;10.73;;;8.93;;
79712;SDS011;69206;51.420;5.400;2023-04-28T12:45:06;9.85;;;8.55;;
79712;SDS011;69206;51.420;5.400;2023-04-28T12:47:33;11.60;;;9.65;;
79712;SDS011;69206;51.420;5.400;2023-04-28T12:49:58;10.00;;;8.05;;
79712;SDS011;69206;51.420;5.400;2023-04-28T12:52:24;8.52;;;7.10;;
79712;SDS011;69206;51.420;5.400;2023-04-28T12:54:49;8.15;;;6.47;;
79712;SDS011;69206;51.420;5.400;2023-04-28T12:57:15;7.85;;;6.07;;
79712;SDS011;69206;51.420;5.400;2023-04-28T12:59:42;7.70;;;6.47;;
79712;SDS011;69206;51.420;5.400;2023-04-28T13:02:08;8.07;;;6.63;;
79712;SDS011;69206;51.420;5.400;2023-04-28T13:04:34;7.88;;;6.93;;
79712;SDS011;69206;51.420;5.400;2023-04-28T13:06:59;7.30;;;6.53;;
79712;SDS011;69206;51.420;5.400;2023-04-28T13:09:26;16.30;;;10.00;;
79712;SDS011;69206;51.420;5.400;2023-04-28T13:11:51;18.02;;;11.90;;
79712;SDS011;69206;51.420;5.400;2023-04-28T13:14:20;23.80;;;14.85;;
79712;SDS011;69206;51.420;5.400;2023-04-28T13:16:45;24.63;;;16.42;;
79712;SDS011;69206;51.420;5.400;2023-04-28T13:19:11;24.73;;;16.50;;
79712;SDS011;69206;51.420;5.400;2023-04-28T13:21:39;26.20;;;18.23;;
79712;SDS011;69206;51.420;5.400;2023-04-28T13:24:05;30.50;;;18.77;;
79712;SDS011;69206;51.420;5.400;2023-04-28T13:26:31;33.78;;;20.58;;
79712;SDS011;69206;51.420;5.400;2023-04-28T13:28:57;31.23;;;19.35;;
79712;SDS011;69206;51.420;5.400;2023-04-28T13:31:22;26.20;;;18.65;;
79712;SDS011;69206;51.420;5.400;2023-04-28T13:33:47;28.98;;;17.48;;
79712;SDS011;69206;51.420;5.400;2023-04-28T13:36:13;22.65;;;15.75;;
79712;SDS011;69206;51.420;5.400;2023-04-28T13:38:39;22.27;;;14.15;;
79712;SDS011;69206;51.420;5.400;2023-04-28T13:41:04;17.67;;;13.05;;
79712;SDS011;69206;51.420;5.400;2023-04-28T13:43:30;16.88;;;12.00;;
79712;SDS011;69206;51.420;5.400;2023-04-28T13:45:55;17.05;;;11.57;;
79712;SDS011;69206;51.420;5.400;2023-04-28T13:48:21;17.13;;;11.75;;
79712;SDS011;69206;51.420;5.400;2023-04-28T13:50:46;15.73;;;11.18;;
79712;SDS011;69206;51.420;5.400;2023-04-28T13:53:12;18.95;;;12.05;;
79712;SDS011;69206;51.420;5.400;2023-04-28T13:55:37;14.75;;;11.35;;
79712;SDS011;69206;51.420;5.400;2023-04-28T13:58:03;19.13;;;12.68;;
79712;SDS011;69206;51.420;5.400;2023-04-28T14:00:31;18.63;;;13.55;;
79712;SDS011;69206;51.420;5.400;2023-04-28T14:02:58;19.42;;;13.02;;
79712;SDS011;69206;51.420;5.400;2023-04-28T14:05:24;23.50;;;13.45;;
79712;SDS011;69206;51.420;5.400;2023-04-28T14:07:50;17.27;;;13.05;;
79712;SDS011;69206;51.420;5.400;2023-04-28T14:10:17;20.27;;;13.43;;
79712;SDS011;69206;51.420;5.400;2023-04-28T14:12:43;21.17;;;14.50;;
79712;SDS011;69206;51.420;5.400;2023-04-28T14:15:08;21.38;;;14.38;;
79712;SDS011;69206;51.420;5.400;2023-04-28T14:17:34;20.55;;;14.88;;
79712;SDS011;69206;51.420;5.400;2023-04-28T14:20:02;20.20;;;14.95;;
79712;SDS011;69206;51.420;5.400;2023-04-28T14:22:28;21.60;;;15.52;;
79712;SDS011;69206;51.420;5.400;2023-04-28T14:24:54;21.05;;;15.27;;
79712;SDS011;69206;51.420;5.400;2023-04-28T14:27:19;19.38;;;14.55;;
79712;SDS011;69206;51.420;5.400;2023-04-28T14:29:46;20.65;;;13.40;;
79712;SDS011;69206;51.420;5.400;2023-04-28T14:32:12;15.82;;;11.13;;
79712;SDS011;69206;51.420;5.400;2023-04-28T14:34:40;14.27;;;11.18;;
79712;SDS011;69206;51.420;5.400;2023-04-28T14:37:06;18.63;;;12.88;;
79712;SDS011;69206;51.420;5.400;2023-04-28T14:39:31;16.80;;;12.25;;
79712;SDS011;69206;51.420;5.400;2023-04-28T14:41:56;20.02;;;12.13;;
79712;SDS011;69206;51.420;5.400;2023-04-28T14:44:22;21.58;;;13.18;;
79712;SDS011;69206;51.420;5.400;2023-04-28T14:46:47;16.80;;;11.35;;
79712;SDS011;69206;51.420;5.400;2023-04-28T14:49:13;18.65;;;12.60;;
79712;SDS011;69206;51.420;5.400;2023-04-28T14:51:38;17.23;;;12.35;;
79712;SDS011;69206;51.420;5.400;2023-04-28T14:54:04;21.17;;;12.40;;
79712;SDS011;69206;51.420;5.400;2023-04-28T14:56:29;19.27;;;13.27;;
79712;SDS011;69206;51.420;5.400;2023-04-28T14:58:55;19.20;;;13.35;;
79712;SDS011;69206;51.420;5.400;2023-04-28T15:01:20;23.38;;;15.32;;